Time;durP1;ratioP1;P1;durP2;ratioP2;P2;SDS_P1;SDS_P2;PMS_P1;PMS_P2;Temp;Humidity;BMP_temperature;BMP_pressure;BME280_temperature;BME280_humidity;BME280_pressure;Samples;Min_cycle;Max_cycle;Signal;HPM_P1;HPM_P2
2021/08/18 00:02:03;;;;;;;8.00;3.50;;;;;;;;;;5108405;28;20397;-70
2021/08/18 00:04:31;;;;;;;9.05;4.40;;;;;;;;;;5111156;28;20044;-70
2021/08/18 00:06:58;;;;;;;6.88;3.53;;;;;;;;;;5111359;28;20138;-69
2021/08/18 00:09:24;;;;;;;9.52;4.15;;;;;;;;;;5111165;28;20051;-69
2021/08/18 00:11:51;;;;;;;11.57;4.07;;;;;;;;;;5111251;28;20048;-70
2021/08/18 00:14:17;;;;;;;8.10;4.10;;;;;;;;;;5110960;28;20046;-70
2021/08/18 00:16:44;;;;;;;11.35;4.38;;;;;;;;;;5111134;28;20058;-70
2021/08/18 00:19:10;;;;;;;9.02;4.60;;;;;;;;;;5111123;28;20054;-69
2021/08/18 00:21:38;;;;;;;10.20;4.32;;;;;;;;;;5110864;28;20482;-70
2021/08/18 00:24:05;;;;;;;6.82;2.95;;;;;;;;;;5111311;28;20046;-70
2021/08/18 00:26:31;;;;;;;9.38;4.32;;;;;;;;;;5110991;28;20048;-70
2021/08/18 00:28:58;;;;;;;9.43;3.80;;;;;;;;;;5112192;27;20465;-70
2021/08/18 00:31:25;;;;;;;8.00;4.40;;;;;;;;;;5114640;28;20055;-69
2021/08/18 00:33:51;;;;;;;9.32;4.78;;;;;;;;;;5104518;28;20052;-69
2021/08/18 00:36:18;;;;;;;8.90;4.28;;;;;;;;;;5113047;28;20043;-69
2021/08/18 00:38:46;;;;;;;10.43;4.03;;;;;;;;;;5111960;28;20052;-70
2021/08/18 00:41:12;;;;;;;8.48;3.55;;;;;;;;;;5107070;28;20074;-69
2021/08/18 00:43:39;;;;;;;9.02;3.67;;;;;;;;;;5112981;28;20047;-69
2021/08/18 00:46:05;;;;;;;7.68;3.50;;;;;;;;;;5114468;28;20051;-70
2021/08/18 00:48:32;;;;;;;8.70;3.72;;;;;;;;;;5112921;28;20428;-70
2021/08/18 00:50:58;;;;;;;7.85;4.32;;;;;;;;;;5113811;28;20503;-69
2021/08/18 00:53:25;;;;;;;6.85;3.47;;;;;;;;;;5114384;28;20047;-69
2021/08/18 00:55:53;;;;;;;10.70;4.30;;;;;;;;;;5114362;28;20417;-69
2021/08/18 00:58:20;;;;;;;8.77;4.03;;;;;;;;;;5114127;28;20047;-70
2021/08/18 01:00:46;;;;;;;9.35;4.18;;;;;;;;;;5113606;28;20044;-70
2021/08/18 01:03:13;;;;;;;9.23;3.95;;;;;;;;;;5114434;28;20380;-70
2021/08/18 01:05:39;;;;;;;8.38;3.95;;;;;;;;;;5113992;28;20047;-69
2021/08/18 01:08:06;;;;;;;10.07;4.10;;;;;;;;;;5114069;28;20051;-69
2021/08/18 01:10:34;;;;;;;9.60;3.63;;;;;;;;;;5113662;28;20070;-69
2021/08/18 01:13:04;;;;;;;8.40;3.33;;;;;;;;;;5113516;28;20058;-69
2021/08/18 01:15:32;;;;;;;7.47;3.80;;;;;;;;;;5113115;28;20070;-69
2021/08/18 01:18:01;;;;;;;8.70;4.03;;;;;;;;;;5113054;28;20040;-69
2021/08/18 01:20:29;;;;;;;7.13;3.80;;;;;;;;;;5112394;28;20170;-69
2021/08/18 01:22:56;;;;;;;8.65;4.20;;;;;;;;;;5112836;28;20060;-69
2021/08/18 01:25:22;;;;;;;9.75;4.40;;;;;;;;;;5112815;28;20039;-69
2021/08/18 01:27:51;;;;;;;7.63;4.13;;;;;;;;;;5112854;28;20047;-69
2021/08/18 01:30:20;;;;;;;8.32;3.80;;;;;;;;;;5112085;28;20055;-69
2021/08/18 01:32:50;;;;;;;9.40;4.45;;;;;;;;;;5112762;28;20058;-69
2021/08/18 01:35:22;;;;;;;8.65;3.97;;;;;;;;;;5112573;28;20050;-69
2021/08/18 01:37:49;;;;;;;9.57;4.80;;;;;;;;;;5113060;28;20043;-69
2021/08/18 01:40:16;;;;;;;9.30;4.72;;;;;;;;;;5112897;28;20070;-69
2021/08/18 01:42:42;;;;;;;8.52;3.80;;;;;;;;;;5113326;28;20040;-70
2021/08/18 01:45:10;;;;;;;11.38;5.22;;;;;;;;;;5113098;28;20070;-69
2021/08/18 01:47:39;;;;;;;10.50;4.53;;;;;;;;;;5113073;28;20062;-69
2021/08/18 01:50:07;;;;;;;11.45;5.38;;;;;;;;;;5111551;28;20500;-69
2021/08/18 01:52:35;;;;;;;14.27;5.45;;;;;;;;;;5112897;28;20098;-69
2021/08/18 01:55:02;;;;;;;9.82;4.70;;;;;;;;;;5112954;28;20043;-69
2021/08/18 01:57:28;;;;;;;12.90;5.93;;;;;;;;;;5112856;28;20040;-69
2021/08/18 01:59:55;;;;;;;10.55;4.57;;;;;;;;;;5113012;28;20051;-69
2021/08/18 02:02:21;;;;;;;12.23;4.72;;;;;;;;;;5113192;28;20487;-69
2021/08/18 02:04:49;;;;;;;10.98;4.60;;;;;;;;;;5112809;28;20396;-69
2021/08/18 02:07:15;;;;;;;9.40;4.80;;;;;;;;;;5112069;28;20047;-69
2021/08/18 02:09:42;;;;;;;12.20;5.97;;;;;;;;;;5112548;28;20517;-69
2021/08/18 02:12:09;;;;;;;13.77;5.88;;;;;;;;;;5112751;28;20423;-69
2021/08/18 02:14:36;;;;;;;11.27;5.70;;;;;;;;;;5112808;28;20050;-69
2021/08/18 02:17:03;;;;;;;11.52;6.30;;;;;;;;;;5113066;28;20499;-69
2021/08/18 02:19:30;;;;;;;13.77;5.50;;;;;;;;;;5118051;27;20058;-69
2021/08/18 02:21:58;;;;;;;11.55;6.43;;;;;;;;;;5118797;27;20499;-69
2021/08/18 02:24:24;;;;;;;17.92;6.82;;;;;;;;;;5133236;27;20054;-69
2021/08/18 02:26:51;;;;;;;14.40;5.80;;;;;;;;;;5132931;27;20429;-69
2021/08/18 02:29:17;;;;;;;11.13;5.97;;;;;;;;;;5132860;27;20047;-69
2021/08/18 02:31:43;;;;;;;12.52;5.78;;;;;;;;;;5116352;27;20051;-69
2021/08/18 02:34:12;;;;;;;13.57;6.03;;;;;;;;;;5112769;28;20058;-69
2021/08/18 02:36:38;;;;;;;12.65;5.88;;;;;;;;;;5112309;28;20079;-70
2021/08/18 02:39:07;;;;;;;16.00;7.28;;;;;;;;;;5112415;28;20073;-70
2021/08/18 02:41:34;;;;;;;14.63;6.70;;;;;;;;;;5112348;28;20459;-70
2021/08/18 02:44:00;;;;;;;15.35;7.28;;;;;;;;;;5112322;28;20047;-70
2021/08/18 02:46:27;;;;;;;14.07;6.78;;;;;;;;;;5112235;28;20043;-69
2021/08/18 02:48:53;;;;;;;13.98;6.40;;;;;;;;;;5111982;28;20044;-69
2021/08/18 02:51:20;;;;;;;13.15;6.63;;;;;;;;;;5107664;28;20058;-69
2021/08/18 02:53:46;;;;;;;15.55;7.10;;;;;;;;;;5111444;28;20036;-69
2021/08/18 02:56:14;;;;;;;14.50;6.95;;;;;;;;;;5111780;28;20043;-69
2021/08/18 02:58:41;;;;;;;18.77;7.43;;;;;;;;;;5112314;28;20407;-69
2021/08/18 03:01:07;;;;;;;15.48;6.90;;;;;;;;;;5111957;28;20376;-69
2021/08/18 03:03:34;;;;;;;13.88;7.15;;;;;;;;;;5112165;28;20761;-69
2021/08/18 03:06:00;;;;;;;20.48;7.85;;;;;;;;;;5111912;28;20415;-70
2021/08/18 03:08:26;;;;;;;17.58;7.78;;;;;;;;;;5112011;28;20047;-69
2021/08/18 03:10:53;;;;;;;15.52;7.53;;;;;;;;;;5112113;28;20047;-69
2021/08/18 03:13:21;;;;;;;17.42;7.47;;;;;;;;;;5111728;28;20043;-70
2021/08/18 03:15:47;;;;;;;17.65;7.25;;;;;;;;;;5111976;28;20043;-69
2021/08/18 03:18:14;;;;;;;14.88;7.70;;;;;;;;;;5111716;28;20051;-70
2021/08/18 03:20:40;;;;;;;14.90;7.78;;;;;;;;;;5111133;28;20142;-70
2021/08/18 03:23:07;;;;;;;16.00;7.45;;;;;;;;;;5112059;28;20051;-70
2021/08/18 03:25:33;;;;;;;16.02;7.47;;;;;;;;;;5111742;28;20059;-70
2021/08/18 03:28:00;;;;;;;16.77;8.05;;;;;;;;;;5111776;28;20043;-70
2021/08/18 03:30:28;;;;;;;17.75;7.80;;;;;;;;;;5111934;28;20058;-70
2021/08/18 03:32:54;;;;;;;18.05;7.60;;;;;;;;;;5112085;28;20066;-70
2021/08/18 03:35:21;;;;;;;15.10;8.00;;;;;;;;;;5111693;28;20472;-70
2021/08/18 03:37:47;;;;;;;21.10;8.48;;;;;;;;;;5111684;28;20074;-70
2021/08/18 03:40:15;;;;;;;17.73;8.25;;;;;;;;;;5111588;28;20059;-70
2021/08/18 03:42:42;;;;;;;17.92;7.25;;;;;;;;;;5111804;28;20075;-70
2021/08/18 03:45:09;;;;;;;17.23;7.85;;;;;;;;;;5111428;28;20062;-70
2021/08/18 03:47:38;;;;;;;15.15;7.38;;;;;;;;;;5109861;28;20376;-70
2021/08/18 03:50:06;;;;;;;15.93;7.95;;;;;;;;;;5110461;28;20495;-70
2021/08/18 03:52:32;;;;;;;18.90;8.18;;;;;;;;;;5107005;28;20052;-70
2021/08/18 03:55:01;;;;;;;18.63;7.68;;;;;;;;;;5106888;28;20056;-70
2021/08/18 03:57:27;;;;;;;18.55;8.02;;;;;;;;;;5106825;28;20090;-70
2021/08/18 03:59:54;;;;;;;17.58;7.53;;;;;;;;;;5098265;28;20056;-70
2021/08/18 04:02:20;;;;;;;14.93;7.20;;;;;;;;;;5109870;28;20062;-70
2021/08/18 04:04:48;;;;;;;15.57;7.20;;;;;;;;;;5115307;28;20047;-70
2021/08/18 04:07:15;;;;;;;16.08;7.07;;;;;;;;;;5115969;28;20484;-70
2021/08/18 04:09:41;;;;;;;16.92;8.40;;;;;;;;;;5115355;28;20051;-70
2021/08/18 04:12:08;;;;;;;14.93;7.40;;;;;;;;;;5115936;28;20409;-70
2021/08/18 04:14:34;;;;;;;17.15;7.60;;;;;;;;;;5115433;28;20044;-70
2021/08/18 04:17:01;;;;;;;14.70;7.53;;;;;;;;;;5114856;28;20048;-70
2021/08/18 04:19:27;;;;;;;17.63;7.38;;;;;;;;;;5115033;28;20051;-70
2021/08/18 04:21:55;;;;;;;17.13;7.93;;;;;;;;;;5115174;28;20047;-70
2021/08/18 04:24:22;;;;;;;15.73;7.55;;;;;;;;;;5115557;28;20070;-70
2021/08/18 04:26:48;;;;;;;19.27;8.25;;;;;;;;;;5117314;27;20039;-70
2021/08/18 04:29:15;;;;;;;16.45;8.45;;;;;;;;;;5116402;27;20051;-70
2021/08/18 04:31:41;;;;;;;21.33;8.20;;;;;;;;;;5113641;28;20043;-70
2021/08/18 04:34:08;;;;;;;19.98;8.80;;;;;;;;;;5111194;27;20047;-71
2021/08/18 04:36:35;;;;;;;17.90;8.43;;;;;;;;;;5111384;28;20040;-70
2021/08/18 04:39:02;;;;;;;15.60;7.75;;;;;;;;;;5111006;28;20461;-70
2021/08/18 04:41:29;;;;;;;16.98;7.75;;;;;;;;;;5112002;28;20111;-70
2021/08/18 04:43:55;;;;;;;15.55;7.78;;;;;;;;;;5114786;28;20056;-69
2021/08/18 04:46:22;;;;;;;17.88;7.68;;;;;;;;;;5114494;28;20055;-70
2021/08/18 04:48:48;;;;;;;19.90;7.72;;;;;;;;;;5114740;28;20051;-70
2021/08/18 04:51:15;;;;;;;19.58;8.85;;;;;;;;;;5114621;28;20110;-70
2021/08/18 04:53:41;;;;;;;14.52;7.50;;;;;;;;;;5113766;28;20047;-70
2021/08/18 04:56:09;;;;;;;18.70;8.38;;;;;;;;;;5115150;28;20036;-70
2021/08/18 04:58:35;;;;;;;19.35;8.63;;;;;;;;;;5114609;28;20051;-70
2021/08/18 05:01:02;;;;;;;17.48;7.68;;;;;;;;;;5113904;28;20047;-70
2021/08/18 05:03:28;;;;;;;17.67;7.95;;;;;;;;;;5113785;28;20055;-70
2021/08/18 05:05:55;;;;;;;16.58;8.25;;;;;;;;;;5114077;28;20048;-70
2021/08/18 05:08:22;;;;;;;18.35;8.70;;;;;;;;;;5114326;28;20044;-70
2021/08/18 05:10:48;;;;;;;18.48;9.23;;;;;;;;;;5114409;28;20054;-70
2021/08/18 05:13:16;;;;;;;18.80;8.93;;;;;;;;;;5113750;28;20055;-70
2021/08/18 05:15:43;;;;;;;18.45;9.05;;;;;;;;;;5113478;28;20054;-70
2021/08/18 05:18:09;;;;;;;17.92;9.15;;;;;;;;;;5110176;28;20052;-70
2021/08/18 05:20:36;;;;;;;17.45;7.93;;;;;;;;;;5112250;28;20074;-70
2021/08/18 05:23:02;;;;;;;19.02;8.90;;;;;;;;;;5111249;28;20129;-70
2021/08/18 05:25:29;;;;;;;14.80;7.43;;;;;;;;;;5111905;28;20055;-70
2021/08/18 05:28:03;;;;;;;18.65;7.78;;;;;;;;;;5107443;27;20046;-70
2021/08/18 05:30:31;;;;;;;19.67;7.68;;;;;;;;;;5107353;27;20052;-70
2021/08/18 05:32:57;;;;;;;15.93;7.68;;;;;;;;;;5109774;27;20065;-70
2021/08/18 05:35:24;;;;;;;15.18;7.40;;;;;;;;;;5111341;28;20071;-70
2021/08/18 05:37:50;;;;;;;18.45;8.50;;;;;;;;;;5100817;27;20129;-70
2021/08/18 05:40:17;;;;;;;14.70;7.60;;;;;;;;;;5111642;28;20056;-70
2021/08/18 05:42:43;;;;;;;19.35;8.35;;;;;;;;;;5108219;28;20040;-70
2021/08/18 05:45:10;;;;;;;19.02;8.45;;;;;;;;;;5111167;28;20059;-70
2021/08/18 05:47:38;;;;;;;20.02;10.07;;;;;;;;;;5113510;28;20063;-70
2021/08/18 05:50:06;;;;;;;18.73;8.82;;;;;;;;;;5113171;28;20047;-70
2021/08/18 05:52:33;;;;;;;17.83;8.52;;;;;;;;;;5113088;28;20456;-70
2021/08/18 05:55:02;;;;;;;17.23;8.77;;;;;;;;;;5112355;28;20048;-70
2021/08/18 05:57:29;;;;;;;14.93;8.07;;;;;;;;;;5110341;28;20104;-70
2021/08/18 05:59:56;;;;;;;18.70;9.63;;;;;;;;;;5103202;28;20048;-70
2021/08/18 06:02:23;;;;;;;18.35;9.07;;;;;;;;;;5111127;28;20069;-70
2021/08/18 06:04:51;;;;;;;21.58;9.63;;;;;;;;;;5104637;28;20472;-69
2021/08/18 06:07:17;;;;;;;19.02;9.55;;;;;;;;;;5111710;28;20074;-70
2021/08/18 06:09:43;;;;;;;18.40;9.20;;;;;;;;;;5091363;28;20051;-70
2021/08/18 06:12:10;;;;;;;20.00;8.55;;;;;;;;;;5111173;28;20043;-70
2021/08/18 06:14:37;;;;;;;20.45;9.65;;;;;;;;;;5107735;28;20051;-70
2021/08/18 06:17:04;;;;;;;24.33;10.15;;;;;;;;;;5111257;28;20126;-71
2021/08/18 06:19:30;;;;;;;19.23;8.88;;;;;;;;;;5110685;28;20047;-70
2021/08/18 06:22:00;;;;;;;18.90;10.07;;;;;;;;;;5109586;28;20514;-70
2021/08/18 06:24:29;;;;;;;19.20;10.52;;;;;;;;;;5112584;28;20055;-70
2021/08/18 06:26:56;;;;;;;18.85;8.60;;;;;;;;;;5112508;28;20503;-70
2021/08/18 06:29:23;;;;;;;17.55;8.90;;;;;;;;;;5113102;28;20047;-70
2021/08/18 06:31:52;;;;;;;19.83;9.93;;;;;;;;;;5112952;28;20503;-70
2021/08/18 06:34:19;;;;;;;20.13;9.90;;;;;;;;;;5112767;28;20048;-70
2021/08/18 06:36:45;;;;;;;22.10;9.82;;;;;;;;;;5112393;28;20089;-70
2021/08/18 06:39:13;;;;;;;22.02;10.90;;;;;;;;;;5112870;28;20048;-70
2021/08/18 06:41:39;;;;;;;19.63;10.27;;;;;;;;;;5112144;28;20051;-70
2021/08/18 06:44:06;;;;;;;20.40;10.13;;;;;;;;;;5112831;28;20048;-70
2021/08/18 06:46:32;;;;;;;21.60;9.73;;;;;;;;;;5112088;28;20047;-70
2021/08/18 06:48:59;;;;;;;19.90;10.05;;;;;;;;;;5112576;28;20048;-70
2021/08/18 06:51:25;;;;;;;22.23;10.55;;;;;;;;;;5111944;28;20047;-70
2021/08/18 06:53:52;;;;;;;23.63;10.93;;;;;;;;;;5110978;28;20056;-70
2021/08/18 06:56:20;;;;;;;22.05;10.88;;;;;;;;;;5111500;28;20047;-71
2021/08/18 06:58:46;;;;;;;23.92;11.88;;;;;;;;;;5110091;28;20051;-70
2021/08/18 07:01:13;;;;;;;22.60;10.65;;;;;;;;;;5112489;28;20047;-70
2021/08/18 07:03:39;;;;;;;23.33;10.20;;;;;;;;;;5112425;28;20404;-70
2021/08/18 07:06:05;;;;;;;20.13;11.07;;;;;;;;;;5111781;28;20054;-70
2021/08/18 07:08:32;;;;;;;21.67;11.20;;;;;;;;;;5112533;28;20043;-70
2021/08/18 07:10:58;;;;;;;20.60;11.32;;;;;;;;;;5112092;28;20040;-70
2021/08/18 07:13:26;;;;;;;25.83;11.57;;;;;;;;;;5112309;28;20055;-70
2021/08/18 07:15:53;;;;;;;22.20;11.77;;;;;;;;;;5111089;28;20051;-70
2021/08/18 07:18:22;;;;;;;21.98;10.77;;;;;;;;;;5112191;28;20495;-69
2021/08/18 07:20:48;;;;;;;21.90;11.32;;;;;;;;;;5112192;28;20043;-70
2021/08/18 07:23:15;;;;;;;21.38;10.77;;;;;;;;;;5112653;28;20051;-70
2021/08/18 07:25:41;;;;;;;21.77;10.75;;;;;;;;;;5112253;28;20051;-70
2021/08/18 07:28:08;;;;;;;22.58;11.73;;;;;;;;;;5112453;28;20051;-70
2021/08/18 07:30:36;;;;;;;21.67;12.05;;;;;;;;;;5112005;28;20055;-70
2021/08/18 07:33:03;;;;;;;24.73;13.48;;;;;;;;;;5112339;28;20404;-70
2021/08/18 07:35:30;;;;;;;22.08;11.63;;;;;;;;;;5111614;28;20059;-69
2021/08/18 07:37:56;;;;;;;20.42;10.80;;;;;;;;;;5115977;28;20384;-70
2021/08/18 07:40:23;;;;;;;24.05;12.48;;;;;;;;;;5115877;28;20047;-70
2021/08/18 07:42:52;;;;;;;22.00;11.13;;;;;;;;;;5115916;28;20052;-70
2021/08/18 07:45:18;;;;;;;18.42;10.57;;;;;;;;;;5116112;28;20043;-70
2021/08/18 07:47:46;;;;;;;24.17;12.32;;;;;;;;;;5116211;28;20058;-70
2021/08/18 07:50:13;;;;;;;22.88;11.75;;;;;;;;;;5116316;27;20476;-70
2021/08/18 07:52:39;;;;;;;20.15;11.27;;;;;;;;;;5116550;28;20048;-70
2021/08/18 07:55:07;;;;;;;17.95;10.13;;;;;;;;;;5114540;28;20052;-70
2021/08/18 07:57:34;;;;;;;18.27;10.27;;;;;;;;;;5115517;28;20044;-70
2021/08/18 08:00:01;;;;;;;21.17;11.35;;;;;;;;;;5116082;28;20101;-70
2021/08/18 08:02:27;;;;;;;20.65;10.85;;;;;;;;;;5116036;28;20204;-70
2021/08/18 08:04:55;;;;;;;18.80;10.27;;;;;;;;;;5115774;28;20056;-70
2021/08/18 08:07:21;;;;;;;21.33;11.07;;;;;;;;;;5115822;28;20043;-70
2021/08/18 08:09:48;;;;;;;20.20;11.05;;;;;;;;;;5115793;28;20060;-70
2021/08/18 08:12:14;;;;;;;18.75;10.82;;;;;;;;;;5115699;28;20056;-70
2021/08/18 08:14:41;;;;;;;19.83;9.88;;;;;;;;;;5115237;28;20056;-70
2021/08/18 08:17:08;;;;;;;21.40;10.60;;;;;;;;;;5115702;28;20495;-70
2021/08/18 08:19:34;;;;;;;19.42;11.18;;;;;;;;;;5115198;28;20089;-70
2021/08/18 08:22:02;;;;;;;19.70;9.80;;;;;;;;;;5113417;27;20051;-70
2021/08/18 08:24:28;;;;;;;16.02;9.20;;;;;;;;;;5115762;28;20060;-70
2021/08/18 08:26:55;;;;;;;17.73;9.80;;;;;;;;;;5115186;28;20078;-70
2021/08/18 08:29:21;;;;;;;16.75;9.63;;;;;;;;;;5115414;28;20054;-70
2021/08/18 08:31:48;;;;;;;16.33;8.88;;;;;;;;;;5115992;28;20058;-70
2021/08/18 08:34:16;;;;;;;15.98;8.82;;;;;;;;;;5115087;28;20048;-70
2021/08/18 08:36:43;;;;;;;18.23;9.05;;;;;;;;;;5114960;28;20040;-70
2021/08/18 08:39:11;;;;;;;15.63;9.23;;;;;;;;;;5115215;28;20047;-70
2021/08/18 08:41:37;;;;;;;16.63;9.52;;;;;;;;;;5115134;28;20048;-70
2021/08/18 08:44:05;;;;;;;16.75;9.15;;;;;;;;;;5114865;28;20047;-70
2021/08/18 08:46:32;;;;;;;14.38;8.82;;;;;;;;;;5115244;27;20040;-70
2021/08/18 08:48:59;;;;;;;15.88;9.43;;;;;;;;;;5114276;28;20460;-69
2021/08/18 08:51:25;;;;;;;14.75;9.73;;;;;;;;;;5116406;27;20051;-70
2021/08/18 08:53:52;;;;;;;18.02;10.07;;;;;;;;;;5115207;28;20055;-70
2021/08/18 08:56:20;;;;;;;16.33;9.65;;;;;;;;;;5113954;28;20051;-70
2021/08/18 08:58:46;;;;;;;16.02;8.90;;;;;;;;;;5114588;28;20487;-70
2021/08/18 09:01:13;;;;;;;15.02;8.90;;;;;;;;;;5114366;28;20460;-70
2021/08/18 09:03:45;;;;;;;12.75;8.55;;;;;;;;;;5114947;28;20070;-70
2021/08/18 09:06:11;;;;;;;17.08;9.00;;;;;;;;;;5114523;28;20047;-69
2021/08/18 09:08:48;;;;;;;21.05;9.02;;;;;;;;;;5114579;28;20055;-70
2021/08/18 09:11:15;;;;;;;14.02;8.93;;;;;;;;;;5114092;28;20071;-70
2021/08/18 09:13:44;;;;;;;16.52;9.30;;;;;;;;;;5114416;28;20479;-70
2021/08/18 09:16:12;;;;;;;15.70;9.55;;;;;;;;;;5114394;28;20058;-70
2021/08/18 09:18:41;;;;;;;14.45;7.90;;;;;;;;;;5114486;28;20472;-70
2021/08/18 09:21:28;;;;;;;13.70;7.85;;;;;;;;;;5113862;28;20066;-70
2021/08/18 09:24:18;;;;;;;16.17;9.30;;;;;;;;;;5114556;28;20055;-70
2021/08/18 09:26:48;;;;;;;14.23;8.02;;;;;;;;;;5114404;28;20040;-70
2021/08/18 09:29:25;;;;;;;13.98;7.97;;;;;;;;;;5114097;28;20048;-70
2021/08/18 09:31:52;;;;;;;12.13;6.95;;;;;;;;;;5113793;28;20075;-70
2021/08/18 09:34:18;;;;;;;12.02;7.43;;;;;;;;;;5114181;28;20399;-70
2021/08/18 09:36:45;;;;;;;14.40;7.63;;;;;;;;;;5114031;28;20059;-70
2021/08/18 09:39:22;;;;;;;13.45;6.50;;;;;;;;;;5113947;28;20404;-70
2021/08/18 09:41:49;;;;;;;13.15;7.72;;;;;;;;;;5113770;28;20059;-70
2021/08/18 09:44:17;;;;;;;10.07;6.72;;;;;;;;;;5113763;28;20056;-70
2021/08/18 09:46:43;;;;;;;11.75;7.40;;;;;;;;;;5113646;28;20129;-68
2021/08/18 09:49:12;;;;;;;11.70;7.57;;;;;;;;;;5113689;28;20051;-68
2021/08/18 09:51:39;;;;;;;12.93;7.45;;;;;;;;;;5113499;28;20054;-68
2021/08/18 09:54:12;;;;;;;11.35;6.88;;;;;;;;;;5113758;28;20388;-67
2021/08/18 09:56:43;;;;;;;14.02;7.93;;;;;;;;;;5112781;28;20052;-69
2021/08/18 09:59:10;;;;;;;13.07;6.93;;;;;;;;;;5110372;28;20129;-66
2021/08/18 10:01:39;;;;;;;10.63;7.13;;;;;;;;;;5112628;28;20054;-70
2021/08/18 10:04:06;;;;;;;10.20;6.00;;;;;;;;;;5113497;28;20074;-70
2021/08/18 10:06:33;;;;;;;11.95;6.40;;;;;;;;;;5112832;28;20487;-70
2021/08/18 10:08:59;;;;;;;10.48;6.75;;;;;;;;;;5113129;28;20055;-70
2021/08/18 10:11:27;;;;;;;12.30;7.63;;;;;;;;;;5112577;28;20047;-70
2021/08/18 10:13:55;;;;;;;13.10;6.90;;;;;;;;;;5112534;28;20051;-70
2021/08/18 10:16:21;;;;;;;13.38;6.90;;;;;;;;;;5112873;28;20480;-70
2021/08/18 10:18:50;;;;;;;11.13;5.97;;;;;;;;;;5113165;28;20261;-70
2021/08/18 10:21:18;;;;;;;10.30;5.57;;;;;;;;;;5112556;28;20404;-70
2021/08/18 10:23:51;;;;;;;10.50;6.55;;;;;;;;;;5113029;28;20053;-70
2021/08/18 10:26:50;;;;;;;12.23;7.00;;;;;;;;;;5112984;28;20054;-70
2021/08/18 10:29:19;;;;;;;12.02;6.57;;;;;;;;;;5113107;28;20108;-70
2021/08/18 10:31:59;;;;;;;10.82;7.10;;;;;;;;;;5112492;28;20538;-68
2021/08/18 10:34:47;;;;;;;13.15;7.00;;;;;;;;;;5112573;28;20066;-70
2021/08/18 10:37:19;;;;;;;14.85;7.28;;;;;;;;;;5113022;28;20396;-70
2021/08/18 10:39:51;;;;;;;12.57;6.75;;;;;;;;;;5112511;28;20047;-70
2021/08/18 10:42:18;;;;;;;10.07;6.35;;;;;;;;;;5113007;28;20441;-70
2021/08/18 10:44:47;;;;;;;10.95;6.50;;;;;;;;;;5112493;28;20048;-70
2021/08/18 10:47:18;;;;;;;11.02;6.38;;;;;;;;;;5112341;28;20043;-70
2021/08/18 10:49:48;;;;;;;11.30;6.30;;;;;;;;;;5112341;28;20548;-67
2021/08/18 10:52:47;;;;;;;11.35;6.82;;;;;;;;;;5112182;28;20082;-70
2021/08/18 10:55:15;;;;;;;11.90;6.25;;;;;;;;;;5112234;28;20044;-70
2021/08/18 10:57:44;;;;;;;10.68;6.32;;;;;;;;;;5111330;28;20044;-70
2021/08/18 11:11:11;;;;;;;9.63;5.53;;;;;;;;;;5103105;28;19926;-71
2021/08/18 11:13:40;;;;;;;8.98;5.35;;;;;;;;;;5111061;28;20043;-70
2021/08/18 11:16:08;;;;;;;8.50;5.50;;;;;;;;;;5108781;28;20048;-70
2021/08/18 11:18:35;;;;;;;9.45;5.50;;;;;;;;;;5111662;28;20438;-70
2021/08/18 11:21:02;;;;;;;11.70;6.45;;;;;;;;;;5111774;28;20107;-70
2021/08/18 11:23:33;;;;;;;10.52;6.03;;;;;;;;;;5112293;28;20074;-70
2021/08/18 11:26:06;;;;;;;9.88;6.00;;;;;;;;;;5111584;28;20459;-70
2021/08/18 11:28:34;;;;;;;8.80;5.30;;;;;;;;;;5108080;28;20048;-70
2021/08/18 11:31:05;;;;;;;8.75;5.30;;;;;;;;;;5111724;28;20081;-68
2021/08/18 11:33:33;;;;;;;10.65;5.80;;;;;;;;;;5111345;28;20483;-70
2021/08/18 11:36:01;;;;;;;8.20;5.32;;;;;;;;;;5111479;28;20048;-70
2021/08/18 11:38:28;;;;;;;10.20;6.10;;;;;;;;;;5111159;28;20048;-70
2021/08/18 11:40:55;;;;;;;8.77;5.75;;;;;;;;;;5111457;28;20048;-69
2021/08/18 11:43:42;;;;;;;10.45;5.47;;;;;;;;;;5111449;28;20058;-70
2021/08/18 11:46:11;;;;;;;10.98;6.43;;;;;;;;;;5091785;28;20446;-70
2021/08/18 11:48:38;;;;;;;9.95;5.82;;;;;;;;;;5106160;28;20100;-70
2021/08/18 11:51:08;;;;;;;8.38;5.07;;;;;;;;;;5111543;28;20057;-70
2021/08/18 11:53:35;;;;;;;9.57;5.28;;;;;;;;;;5111138;28;20051;-70
2021/08/18 11:56:04;;;;;;;11.88;5.80;;;;;;;;;;5111778;28;20043;-70
2021/08/18 11:58:35;;;;;;;11.38;5.95;;;;;;;;;;5110992;28;20479;-70
2021/08/18 12:01:04;;;;;;;8.65;5.32;;;;;;;;;;5110886;28;20047;-70
2021/08/18 12:03:32;;;;;;;9.23;5.63;;;;;;;;;;5111734;28;20051;-70
2021/08/18 12:06:00;;;;;;;9.27;5.78;;;;;;;;;;5109784;28;20035;-70
2021/08/18 12:08:37;;;;;;;11.95;6.00;;;;;;;;;;5111748;28;20472;-70
2021/08/18 12:11:05;;;;;;;9.77;5.65;;;;;;;;;;5111401;28;20047;-70
2021/08/18 12:13:45;;;;;;;10.43;6.03;;;;;;;;;;5111436;28;20063;-70
2021/08/18 12:16:25;;;;;;;8.77;5.95;;;;;;;;;;5111695;28;20377;-70
2021/08/18 12:18:54;;;;;;;11.90;6.03;;;;;;;;;;5111689;28;20040;-70
2021/08/18 12:21:21;;;;;;;10.30;6.20;;;;;;;;;;5111256;28;20066;-70
2021/08/18 12:23:49;;;;;;;11.30;5.95;;;;;;;;;;5112790;28;20054;-70
2021/08/18 12:26:26;;;;;;;12.02;5.60;;;;;;;;;;5115227;28;20065;-70
2021/08/18 12:28:53;;;;;;;11.48;5.90;;;;;;;;;;5115138;28;20040;-70
2021/08/18 12:31:20;;;;;;;12.68;6.15;;;;;;;;;;5115301;28;20476;-70
2021/08/18 12:34:05;;;;;;;10.02;5.25;;;;;;;;;;5115164;28;20052;-70
2021/08/18 12:36:31;;;;;;;10.60;5.70;;;;;;;;;;5114794;28;20498;-70
2021/08/18 12:38:57;;;;;;;9.02;5.10;;;;;;;;;;5115214;28;20039;-70
2021/08/18 12:41:25;;;;;;;10.20;6.00;;;;;;;;;;5115026;28;20043;-70
2021/08/18 12:44:03;;;;;;;10.55;6.30;;;;;;;;;;5114651;28;20528;-70
2021/08/18 12:46:32;;;;;;;9.23;4.88;;;;;;;;;;5112225;28;20271;-70
2021/08/18 12:49:28;;;;;;;11.68;5.13;;;;;;;;;;5114632;28;20046;-70
2021/08/18 12:51:55;;;;;;;11.17;5.57;;;;;;;;;;5114551;28;20039;-70
2021/08/18 12:54:21;;;;;;;10.50;5.45;;;;;;;;;;5114888;28;20048;-70
2021/08/18 12:56:48;;;;;;;9.50;5.43;;;;;;;;;;5114368;28;20048;-70
2021/08/18 12:59:15;;;;;;;8.35;5.18;;;;;;;;;;5114106;28;20039;-70
2021/08/18 13:01:41;;;;;;;8.05;5.13;;;;;;;;;;5113181;28;20716;-70
2021/08/18 13:04:08;;;;;;;8.43;4.97;;;;;;;;;;5114407;28;20044;-70
2021/08/18 13:06:36;;;;;;;7.18;4.47;;;;;;;;;;5114127;28;20052;-70
2021/08/18 13:09:02;;;;;;;8.45;4.90;;;;;;;;;;5114428;28;20384;-70
2021/08/18 13:11:29;;;;;;;9.95;4.85;;;;;;;;;;5114406;28;20047;-70
2021/08/18 13:13:56;;;;;;;8.85;5.43;;;;;;;;;;5113418;28;20400;-70
2021/08/18 13:16:22;;;;;;;8.77;4.85;;;;;;;;;;5114562;28;20047;-70
2021/08/18 13:18:50;;;;;;;9.05;5.18;;;;;;;;;;5098962;28;20047;-70
2021/08/18 13:21:16;;;;;;;8.10;4.70;;;;;;;;;;5112832;28;20048;-70
2021/08/18 13:23:44;;;;;;;8.50;4.95;;;;;;;;;;5113734;28;20460;-70
2021/08/18 13:26:11;;;;;;;8.38;4.50;;;;;;;;;;5107604;28;20052;-70
2021/08/18 13:28:38;;;;;;;8.60;4.63;;;;;;;;;;5112116;28;20480;-70
2021/08/18 13:31:05;;;;;;;10.13;4.80;;;;;;;;;;5110781;28;20051;-70
2021/08/18 13:33:31;;;;;;;6.85;4.43;;;;;;;;;;5114149;28;20514;-70
2021/08/18 13:36:00;;;;;;;8.05;4.53;;;;;;;;;;5113554;28;20050;-69
2021/08/18 13:38:26;;;;;;;7.45;4.60;;;;;;;;;;5113178;28;20491;-70
2021/08/18 13:40:54;;;;;;;8.15;4.45;;;;;;;;;;5113819;28;20047;-70
2021/08/18 13:43:20;;;;;;;7.88;3.80;;;;;;;;;;5113763;28;20052;-70
2021/08/18 13:45:47;;;;;;;7.63;3.90;;;;;;;;;;5114036;28;20044;-68
2021/08/18 13:48:14;;;;;;;7.05;4.40;;;;;;;;;;5113943;28;20070;-68
2021/08/18 13:50:40;;;;;;;8.30;4.22;;;;;;;;;;5113517;28;20108;-70
2021/08/18 13:53:07;;;;;;;6.75;4.97;;;;;;;;;;5104734;28;20047;-70
2021/08/18 13:55:34;;;;;;;9.50;3.92;;;;;;;;;;5113372;28;20468;-71
2021/08/18 13:58:02;;;;;;;6.10;3.65;;;;;;;;;;5113874;28;20047;-68
2021/08/18 14:00:30;;;;;;;5.32;3.45;;;;;;;;;;5113092;28;20058;-70
2021/08/18 14:02:57;;;;;;;5.07;3.42;;;;;;;;;;5112621;28;20051;-70
2021/08/18 14:05:23;;;;;;;9.15;3.58;;;;;;;;;;5113214;28;20055;-70
2021/08/18 14:07:50;;;;;;;6.47;3.35;;;;;;;;;;5113312;28;20044;-70
2021/08/18 14:10:16;;;;;;;5.07;3.28;;;;;;;;;;5113387;28;20060;-70
2021/08/18 14:12:43;;;;;;;5.72;3.17;;;;;;;;;;5113363;28;20377;-70
2021/08/18 14:15:11;;;;;;;5.10;3.33;;;;;;;;;;5113259;28;20047;-70
2021/08/18 14:17:38;;;;;;;5.05;2.92;;;;;;;;;;5113078;28;20468;-70
2021/08/18 14:20:06;;;;;;;5.38;3.17;;;;;;;;;;5112914;28;20416;-69
2021/08/18 14:22:32;;;;;;;4.72;2.90;;;;;;;;;;5113171;28;20048;-70
2021/08/18 14:24:58;;;;;;;5.63;2.88;;;;;;;;;;5112532;28;20047;-70
2021/08/18 14:27:25;;;;;;;5.13;2.50;;;;;;;;;;5112952;28;20062;-70
2021/08/18 14:29:51;;;;;;;8.90;3.35;;;;;;;;;;5112769;28;20475;-68
2021/08/18 14:32:19;;;;;;;6.00;3.15;;;;;;;;;;5113270;28;20044;-68
2021/08/18 14:34:46;;;;;;;6.07;3.13;;;;;;;;;;5112434;28;20043;-68
2021/08/18 14:37:12;;;;;;;6.63;3.13;;;;;;;;;;5112971;28;20059;-69
2021/08/18 14:39:39;;;;;;;6.35;3.58;;;;;;;;;;5113073;28;20039;-70
2021/08/18 14:42:05;;;;;;;6.80;3.08;;;;;;;;;;5112792;28;20044;-70
2021/08/18 14:44:32;;;;;;;5.30;2.97;;;;;;;;;;5112764;28;20581;-70
2021/08/18 14:46:58;;;;;;;6.50;2.90;;;;;;;;;;5112358;28;20380;-70